This is the latest recevied weather packets stored in our database for station/object PA0HHN. If no packets are shown the sender has not sent any weather packets the latest 10 day(s).
| Time | Temp. | Humidity | Pressure | Rain* | Wind** | Luminosity | Snow |
|---|---|---|---|---|---|---|---|
| 1778333402 | 17.78° C | 58% | 1012 hPa | - | - | - | - |
| 1778332502 | 17.78° C | 59% | 1012.3 hPa | - | - | - | - |
| 1778331600 | 17.22° C | 60% | 1012.3 hPa | - | - | - | - |
| 1778330702 | 17.78° C | 59% | 1012.3 hPa | - | - | - | - |
| 1778329800 | 17.22° C | 60% | 1012.4 hPa | - | - | - | - |
| 1778328902 | 17.78° C | 59% | 1012.7 hPa | - | - | - | - |
| 1778328002 | 17.22° C | 61% | 1012.9 hPa | - | - | - | - |
| 1778327102 | 17.78° C | 60% | 1012.8 hPa | - | - | - | - |
| 1778326202 | 17.22° C | 62% | 1013.1 hPa | - | - | - | - |
| 1778325302 | 16.11° C | 64% | 1013.2 hPa | - | - | - | - |
| 1778324400 | 17.22° C | 62% | 1013.5 hPa | - | - | - | - |
| 1778323501 | 16.11° C | 61% | 1013.5 hPa | - | - | - | - |
| 1778322602 | 17.22° C | 62% | 1013.5 hPa | - | - | - | - |
| 1778321701 | 16.11° C | 63% | 1013.9 hPa | - | - | - | - |
| 1778320802 | 16.11° C | 64% | 1013.8 hPa | - | - | - | - |
| 1778319902 | 15° C | 67% | 1014 hPa | - | - | - | - |
| 1778316302 | 15° C | 68% | 1013.9 hPa | - | - | - | - |
| 1778315402 | 15° C | 69% | 1014.1 hPa | - | - | - | - |
| 1778314501 | 13.89° C | 72% | 1014.2 hPa | - | - | - | - |
| 1778313601 | 12.78° C | 76% | 1014.3 hPa | - | - | - | - |
| 1778312701 | 12.78° C | 77% | 1014.4 hPa | - | - | - | - |
| 1778311802 | 12.78° C | 78% | 1014.4 hPa | - | - | - | - |
| 1778310901 | 12.22° C | 79% | 1014.5 hPa | - | - | - | - |
| 1778310002 | 12.22° C | 80% | 1014.4 hPa | - | - | - | - |
| 1778309101 | 12.22° C | 80% | 1014.5 hPa | - | - | - | - |
* Rain since midnight (hover to see other rain measurements)
** Current wind speed in m/s (hover to see current wind gust speed)